sensor_id;sensor_type;location;lat;lon;timestamp;pressure;altitude;pressure_sealevel;temperature;humidity
18749;BME280;9503;53.560;10.246;2023-07-22T00:01:52;100405.19;;;19.04;82.62
18749;BME280;9503;53.560;10.246;2023-07-22T00:04:19;100404.34;;;19.05;82.38
18749;BME280;9503;53.560;10.246;2023-07-22T00:06:45;100419.13;;;19.11;82.35
18749;BME280;9503;53.560;10.246;2023-07-22T00:09:12;100411.34;;;19.14;81.98
18749;BME280;9503;53.560;10.246;2023-07-22T00:11:39;100402.69;;;19.17;81.85
18749;BME280;9503;53.560;10.246;2023-07-22T00:14:05;100413.06;;;19.12;82.33
18749;BME280;9503;53.560;10.246;2023-07-22T00:16:33;100402.66;;;19.15;82.63
18749;BME280;9503;53.560;10.246;2023-07-22T00:19:00;100412.19;;;19.13;82.44
18749;BME280;9503;53.560;10.246;2023-07-22T00:21:27;100404.09;;;18.80;84.12
18749;BME280;9503;53.560;10.246;2023-07-22T00:23:54;100413.06;;;19.15;82.66
18749;BME280;9503;53.560;10.246;2023-07-22T00:26:21;100418.25;;;19.14;82.35
18749;BME280;9503;53.560;10.246;2023-07-22T00:28:47;100414.78;;;19.13;82.16
18749;BME280;9503;53.560;10.246;2023-07-22T00:31:14;100413.00;;;19.03;82.08
18749;BME280;9503;53.560;10.246;2023-07-22T00:33:42;100419.06;;;19.05;81.59
18749;BME280;9503;53.560;10.246;2023-07-22T00:36:09;100419.78;;;18.89;82.59
18749;BME280;9503;53.560;10.246;2023-07-22T00:38:35;100414.72;;;19.02;81.77
18749;BME280;9503;53.560;10.246;2023-07-22T00:41:02;100415.53;;;19.00;81.93
18749;BME280;9503;53.560;10.246;2023-07-22T00:43:30;100414.59;;;18.89;82.31
18749;BME280;9503;53.560;10.246;2023-07-22T00:45:57;100416.97;;;18.69;83.38
18749;BME280;9503;53.560;10.246;2023-07-22T00:48:23;100406.28;;;18.43;85.03
18749;BME280;9503;53.560;10.246;2023-07-22T00:50:52;100412.66;;;18.68;83.83
18749;BME280;9503;53.560;10.246;2023-07-22T00:53:19;100407.84;;;18.29;85.63
18749;BME280;9503;53.560;10.246;2023-07-22T00:55:46;100404.59;;;18.46;85.07
18749;BME280;9503;53.560;10.246;2023-07-22T00:58:12;100413.16;;;18.36;84.95
18749;BME280;9503;53.560;10.246;2023-07-22T01:00:40;100409.00;;;18.55;84.77
18749;BME280;9503;53.560;10.246;2023-07-22T01:03:07;100405.59;;;18.59;83.97
18749;BME280;9503;53.560;10.246;2023-07-22T01:05:35;100413.41;;;18.59;84.19
18749;BME280;9503;53.560;10.246;2023-07-22T01:08:04;100409.00;;;18.54;83.58
18749;BME280;9503;53.560;10.246;2023-07-22T01:10:31;100411.69;;;18.63;84.26
18749;BME280;9503;53.560;10.246;2023-07-22T01:12:57;100406.00;;;18.20;85.62
18749;BME280;9503;53.560;10.246;2023-07-22T01:15:24;100407.13;;;18.39;85.65
18749;BME280;9503;53.560;10.246;2023-07-22T01:17:52;100402.94;;;18.52;84.78
18749;BME280;9503;53.560;10.246;2023-07-22T01:20:22;100397.81;;;18.61;83.76
18749;BME280;9503;53.560;10.246;2023-07-22T01:22:52;100400.81;;;18.18;85.13
18749;BME280;9503;53.560;10.246;2023-07-22T01:25:19;100405.41;;;18.41;84.85
18749;BME280;9503;53.560;10.246;2023-07-22T01:27:47;100399.72;;;18.00;86.90
18749;BME280;9503;53.560;10.246;2023-07-22T01:30:13;100399.84;;;18.10;86.63
18749;BME280;9503;53.560;10.246;2023-07-22T01:32:40;100394.56;;;18.01;87.09
18749;BME280;9503;53.560;10.246;2023-07-22T01:35:08;100404.59;;;18.45;85.18
18749;BME280;9503;53.560;10.246;2023-07-22T01:37:35;100395.00;;;18.39;84.33
18749;BME280;9503;53.560;10.246;2023-07-22T01:40:05;100407.22;;;18.48;84.06
18749;BME280;9503;53.560;10.246;2023-07-22T01:42:37;100396.94;;;18.59;83.26
18749;BME280;9503;53.560;10.246;2023-07-22T01:45:05;100401.91;;;18.37;83.87
18749;BME280;9503;53.560;10.246;2023-07-22T01:47:33;100407.25;;;18.53;83.62
18749;BME280;9503;53.560;10.246;2023-07-22T01:49:59;100401.66;;;18.17;84.83
18749;BME280;9503;53.560;10.246;2023-07-22T01:52:26;100399.34;;;18.40;83.87
18749;BME280;9503;53.560;10.246;2023-07-22T01:54:53;100396.72;;;18.37;83.82
18749;BME280;9503;53.560;10.246;2023-07-22T01:57:21;100391.28;;;18.17;85.43
18749;BME280;9503;53.560;10.246;2023-07-22T01:59:47;100391.31;;;18.20;84.39
18749;BME280;9503;53.560;10.246;2023-07-22T02:02:14;100393.72;;;18.04;85.48
18749;BME280;9503;53.560;10.246;2023-07-22T02:04:41;100397.97;;;17.99;86.04
18749;BME280;9503;53.560;10.246;2023-07-22T02:07:07;100390.69;;;18.40;83.92
18749;BME280;9503;53.560;10.246;2023-07-22T02:09:35;100401.00;;;18.35;84.22
18749;BME280;9503;53.560;10.246;2023-07-22T02:12:02;100391.97;;;18.01;84.93
18749;BME280;9503;53.560;10.246;2023-07-22T02:14:30;100398.19;;;18.15;84.50
18749;BME280;9503;53.560;10.246;2023-07-22T02:16:57;100386.88;;;18.10;83.92
18749;BME280;9503;53.560;10.246;2023-07-22T02:19:26;100396.31;;;18.05;84.88
18749;BME280;9503;53.560;10.246;2023-07-22T02:21:52;100394.91;;;18.32;83.46
18749;BME280;9503;53.560;10.246;2023-07-22T02:24:19;100396.81;;;18.45;82.64
18749;BME280;9503;53.560;10.246;2023-07-22T02:26:46;100396.75;;;18.40;82.19
18749;BME280;9503;53.560;10.246;2023-07-22T02:29:12;100401.81;;;18.30;82.34
18749;BME280;9503;53.560;10.246;2023-07-22T02:31:40;100401.09;;;17.72;84.85
18749;BME280;9503;53.560;10.246;2023-07-22T02:34:07;100404.94;;;18.00;83.81
18749;BME280;9503;53.560;10.246;2023-07-22T02:36:34;100406.41;;;17.84;84.37
18749;BME280;9503;53.560;10.246;2023-07-22T02:39:00;100408.00;;;17.71;85.00
18749;BME280;9503;53.560;10.246;2023-07-22T02:41:28;100416.78;;;17.82;85.46
18749;BME280;9503;53.560;10.246;2023-07-22T02:43:54;100411.97;;;18.11;84.23
18749;BME280;9503;53.560;10.246;2023-07-22T02:46:22;100407.53;;;18.00;84.33
18749;BME280;9503;53.560;10.246;2023-07-22T02:48:51;100405.06;;;18.13;83.33
18749;BME280;9503;53.560;10.246;2023-07-22T02:51:18;100416.53;;;18.31;82.37
18749;BME280;9503;53.560;10.246;2023-07-22T02:53:44;100408.53;;;18.14;83.08
18749;BME280;9503;53.560;10.246;2023-07-22T02:56:12;100406.56;;;17.94;84.06
18749;BME280;9503;53.560;10.246;2023-07-22T02:58:40;100406.59;;;17.98;83.97
18749;BME280;9503;53.560;10.246;2023-07-22T03:01:07;100410.56;;;18.38;82.95
18749;BME280;9503;53.560;10.246;2023-07-22T03:03:36;100412.81;;;18.09;83.39
18749;BME280;9503;53.560;10.246;2023-07-22T03:06:06;100405.22;;;18.26;83.57
18749;BME280;9503;53.560;10.246;2023-07-22T03:08:34;100411.28;;;18.28;83.18
18749;BME280;9503;53.560;10.246;2023-07-22T03:11:01;100413.69;;;18.09;83.32
18749;BME280;9503;53.560;10.246;2023-07-22T03:13:29;100418.81;;;18.06;83.89
18749;BME280;9503;53.560;10.246;2023-07-22T03:15:56;100411.88;;;18.04;84.74
18749;BME280;9503;53.560;10.246;2023-07-22T03:18:22;100411.00;;;18.02;84.54
18749;BME280;9503;53.560;10.246;2023-07-22T03:20:49;100413.88;;;18.28;83.32
18749;BME280;9503;53.560;10.246;2023-07-22T03:23:18;100419.03;;;18.21;83.07
18749;BME280;9503;53.560;10.246;2023-07-22T03:25:46;100414.56;;;18.10;84.17
18749;BME280;9503;53.560;10.246;2023-07-22T03:28:16;100415.22;;;17.95;84.93
18749;BME280;9503;53.560;10.246;2023-07-22T03:30:43;100422.28;;;18.05;84.54
18749;BME280;9503;53.560;10.246;2023-07-22T03:33:10;100420.41;;;17.95;84.27
18749;BME280;9503;53.560;10.246;2023-07-22T03:35:36;100424.25;;;18.25;83.46
18749;BME280;9503;53.560;10.246;2023-07-22T03:38:03;100432.56;;;17.99;84.12
18749;BME280;9503;53.560;10.246;2023-07-22T03:40:32;100432.19;;;18.37;83.22
18749;BME280;9503;53.560;10.246;2023-07-22T03:42:59;100436.97;;;18.74;81.54
18749;BME280;9503;53.560;10.246;2023-07-22T03:45:26;100438.66;;;18.72;81.63
18749;BME280;9503;53.560;10.246;2023-07-22T03:47:56;100440.38;;;18.72;81.25
18749;BME280;9503;53.560;10.246;2023-07-22T03:50:23;100445.63;;;18.76;80.68
18749;BME280;9503;53.560;10.246;2023-07-22T03:52:50;100433.50;;;18.75;81.37
18749;BME280;9503;53.560;10.246;2023-07-22T03:55:16;100442.09;;;18.68;81.76
18749;BME280;9503;53.560;10.246;2023-07-22T03:57:46;100433.44;;;18.72;81.46
18749;BME280;9503;53.560;10.246;2023-07-22T04:00:13;100431.78;;;18.77;81.42
18749;BME280;9503;53.560;10.246;2023-07-22T04:02:39;100426.94;;;18.34;82.14
18749;BME280;9503;53.560;10.246;2023-07-22T04:05:06;100424.44;;;18.40;83.33
18749;BME280;9503;53.560;10.246;2023-07-22T04:07:33;100436.94;;;18.73;82.29
18749;BME280;9503;53.560;10.246;2023-07-22T04:10:00;100437.16;;;18.96;80.67
18749;BME280;9503;53.560;10.246;2023-07-22T04:12:27;100422.50;;;19.02;80.50
18749;BME280;9503;53.560;10.246;2023-07-22T04:14:56;100433.94;;;18.39;81.71
18749;BME280;9503;53.560;10.246;2023-07-22T04:17:23;100436.38;;;18.29;83.21
18749;BME280;9503;53.560;10.246;2023-07-22T04:19:51;100440.34;;;18.66;82.04
18749;BME280;9503;53.560;10.246;2023-07-22T04:22:18;100440.59;;;18.16;83.12
18749;BME280;9503;53.560;10.246;2023-07-22T04:24:44;100447.81;;;18.43;82.33
18749;BME280;9503;53.560;10.246;2023-07-22T04:27:14;100439.56;;;18.06;83.17
18749;BME280;9503;53.560;10.246;2023-07-22T04:29:41;100443.81;;;18.69;81.98
18749;BME280;9503;53.560;10.246;2023-07-22T04:32:09;100452.47;;;18.68;81.26
18749;BME280;9503;53.560;10.246;2023-07-22T04:34:36;100460.16;;;18.64;81.11
18749;BME280;9503;53.560;10.246;2023-07-22T04:37:03;100458.59;;;18.75;81.95
18749;BME280;9503;53.560;10.246;2023-07-22T04:39:30;100451.41;;;18.53;82.52
18749;BME280;9503;53.560;10.246;2023-07-22T04:41:57;100467.09;;;18.65;80.82
18749;BME280;9503;53.560;10.246;2023-07-22T04:44:27;100456.09;;;18.83;81.67
18749;BME280;9503;53.560;10.246;2023-07-22T04:46:53;100460.16;;;19.50;78.79
18749;BME280;9503;53.560;10.246;2023-07-22T04:49:22;100458.03;;;19.05;79.50
18749;BME280;9503;53.560;10.246;2023-07-22T04:51:48;100466.16;;;19.45;77.98
18749;BME280;9503;53.560;10.246;2023-07-22T04:54:16;100473.63;;;19.05;79.36
18749;BME280;9503;53.560;10.246;2023-07-22T04:56:43;100477.09;;;19.04;79.75
18749;BME280;9503;53.560;10.246;2023-07-22T04:59:10;100486.63;;;19.07;78.94
18749;BME280;9503;53.560;10.246;2023-07-22T05:01:37;100486.09;;;19.41;78.26
18749;BME280;9503;53.560;10.246;2023-07-22T05:04:04;100484.84;;;20.12;76.43
18749;BME280;9503;53.560;10.246;2023-07-22T05:06:32;100484.47;;;19.54;77.79
18749;BME280;9503;53.560;10.246;2023-07-22T05:09:01;100486.56;;;20.11;75.65
18749;BME280;9503;53.560;10.246;2023-07-22T05:11:27;100489.34;;;20.42;73.81
18749;BME280;9503;53.560;10.246;2023-07-22T05:13:54;100490.63;;;19.62;77.44
18749;BME280;9503;53.560;10.246;2023-07-22T05:16:21;100494.09;;;19.66;77.51
18749;BME280;9503;53.560;10.246;2023-07-22T05:18:47;100497.81;;;20.04;75.31
18749;BME280;9503;53.560;10.246;2023-07-22T05:21:14;100498.53;;;19.82;77.16
18749;BME280;9503;53.560;10.246;2023-07-22T05:23:42;100499.50;;;19.93;76.52
18749;BME280;9503;53.560;10.246;2023-07-22T05:26:09;100503.28;;;20.46;74.37
18749;BME280;9503;53.560;10.246;2023-07-22T05:28:36;100507.69;;;19.34;77.68
18749;BME280;9503;53.560;10.246;2023-07-22T05:31:02;100504.03;;;20.29;76.04
18749;BME280;9503;53.560;10.246;2023-07-22T05:33:30;100512.91;;;20.68;74.51
18749;BME280;9503;53.560;10.246;2023-07-22T05:35:58;100509.44;;;20.69;73.58
18749;BME280;9503;53.560;10.246;2023-07-22T05:38:24;100518.06;;;20.53;74.16
18749;BME280;9503;53.560;10.246;2023-07-22T05:40:53;100518.13;;;20.65;74.48
18749;BME280;9503;53.560;10.246;2023-07-22T05:43:20;100524.19;;;20.58;74.92
18749;BME280;9503;53.560;10.246;2023-07-22T05:45:46;100515.28;;;20.25;75.06
18749;BME280;9503;53.560;10.246;2023-07-22T05:48:13;100528.53;;;20.59;74.12
18749;BME280;9503;53.560;10.246;2023-07-22T05:50:39;100527.25;;;19.94;76.07
18749;BME280;9503;53.560;10.246;2023-07-22T05:53:06;100528.16;;;19.99;76.29
18749;BME280;9503;53.560;10.246;2023-07-22T05:55:33;100531.81;;;20.30;75.78
18749;BME280;9503;53.560;10.246;2023-07-22T05:58:02;100529.47;;;20.91;74.12
18749;BME280;9503;53.560;10.246;2023-07-22T06:00:31;100526.94;;;21.08;73.17
18749;BME280;9503;53.560;10.246;2023-07-22T06:02:58;100536.56;;;21.38;72.14
18749;BME280;9503;53.560;10.246;2023-07-22T06:05:24;100526.88;;;20.90;72.78
18749;BME280;9503;53.560;10.246;2023-07-22T06:07:51;100543.53;;;21.30;72.36
18749;BME280;9503;53.560;10.246;2023-07-22T06:10:19;100534.81;;;21.94;70.26
18749;BME280;9503;53.560;10.246;2023-07-22T06:12:46;100537.41;;;22.20;69.20
18749;BME280;9503;53.560;10.246;2023-07-22T06:15:14;100537.38;;;21.22;72.23
18749;BME280;9503;53.560;10.246;2023-07-22T06:17:41;100541.78;;;21.43;71.28
18749;BME280;9503;53.560;10.246;2023-07-22T06:20:09;100540.88;;;21.94;70.59
18749;BME280;9503;53.560;10.246;2023-07-22T06:22:35;100544.41;;;21.78;68.81
18749;BME280;9503;53.560;10.246;2023-07-22T06:25:02;100546.13;;;21.30;70.16
18749;BME280;9503;53.560;10.246;2023-07-22T06:27:29;100545.25;;;21.42;70.58
18749;BME280;9503;53.560;10.246;2023-07-22T06:29:56;100543.53;;;21.64;70.02
18749;BME280;9503;53.560;10.246;2023-07-22T06:32:24;100544.41;;;21.78;69.55
18749;BME280;9503;53.560;10.246;2023-07-22T06:34:51;100538.22;;;21.09;71.62
18749;BME280;9503;53.560;10.246;2023-07-22T06:37:18;100543.34;;;20.72;72.71
18749;BME280;9503;53.560;10.246;2023-07-22T06:39:44;100540.69;;;20.69;73.03
18749;BME280;9503;53.560;10.246;2023-07-22T06:42:11;100543.44;;;21.15;72.35
18749;BME280;9503;53.560;10.246;2023-07-22T06:44:37;100553.06;;;22.01;70.23
18749;BME280;9503;53.560;10.246;2023-07-22T06:47:05;100550.47;;;21.49;70.14
18749;BME280;9503;53.560;10.246;2023-07-22T06:49:33;100552.94;;;20.93;72.49
18749;BME280;9503;53.560;10.246;2023-07-22T06:52:00;100542.66;;;21.59;69.25
18749;BME280;9503;53.560;10.246;2023-07-22T06:54:27;100546.13;;;21.90;68.47
18749;BME280;9503;53.560;10.246;2023-07-22T06:56:54;100549.63;;;21.64;69.38
18749;BME280;9503;53.560;10.246;2023-07-22T06:59:20;100549.63;;;21.96;67.22
18749;BME280;9503;53.560;10.246;2023-07-22T07:01:47;100558.19;;;22.59;66.32
18749;BME280;9503;53.560;10.246;2023-07-22T07:04:13;100552.00;;;22.79;66.00
18749;BME280;9503;53.560;10.246;2023-07-22T07:06:41;100562.47;;;22.77;64.22
18749;BME280;9503;53.560;10.246;2023-07-22T07:09:08;100559.97;;;22.48;65.19
18749;BME280;9503;53.560;10.246;2023-07-22T07:11:35;100564.19;;;22.89;65.63
18749;BME280;9503;53.560;10.246;2023-07-22T07:14:02;100561.38;;;23.20;63.87
18749;BME280;9503;53.560;10.246;2023-07-22T07:16:30;100570.09;;;23.20;63.79
18749;BME280;9503;53.560;10.246;2023-07-22T07:18:57;100564.84;;;23.25;63.99
18749;BME280;9503;53.560;10.246;2023-07-22T07:21:24;100574.50;;;23.16;63.32
18749;BME280;9503;53.560;10.246;2023-07-22T07:23:53;100569.94;;;23.51;62.35
18749;BME280;9503;53.560;10.246;2023-07-22T07:26:20;100570.44;;;22.41;63.90
18749;BME280;9503;53.560;10.246;2023-07-22T07:28:47;100574.63;;;22.91;64.55
18749;BME280;9503;53.560;10.246;2023-07-22T07:31:16;100567.28;;;23.49;61.52
18749;BME280;9503;53.560;10.246;2023-07-22T07:33:42;100570.13;;;23.19;60.31
18749;BME280;9503;53.560;10.246;2023-07-22T07:36:09;100569.44;;;22.74;63.01
18749;BME280;9503;53.560;10.246;2023-07-22T07:38:36;100573.78;;;22.92;63.16
18749;BME280;9503;53.560;10.246;2023-07-22T07:41:05;100576.16;;;23.31;60.35
18749;BME280;9503;53.560;10.246;2023-07-22T07:43:33;100575.56;;;22.67;61.18
18749;BME280;9503;53.560;10.246;2023-07-22T07:46:18;100578.97;;;22.90;61.24
18749;BME280;9503;53.560;10.246;2023-07-22T07:48:48;100578.69;;;23.40;59.23
18749;BME280;9503;53.560;10.246;2023-07-22T07:51:15;100587.59;;;23.16;59.49
18749;BME280;9503;53.560;10.246;2023-07-22T07:53:43;100586.88;;;22.78;60.26
18749;BME280;9503;53.560;10.246;2023-07-22T07:56:11;100585.94;;;22.83;59.66
18749;BME280;9503;53.560;10.246;2023-07-22T07:58:38;100586.78;;;22.98;59.87
18749;BME280;9503;53.560;10.246;2023-07-22T08:01:05;100597.25;;;23.02;60.00
18749;BME280;9503;53.560;10.246;2023-07-22T08:03:33;100595.53;;;22.95;59.54
18749;BME280;9503;53.560;10.246;2023-07-22T08:06:00;100602.13;;;23.66;59.54
18749;BME280;9503;53.560;10.246;2023-07-22T08:08:27;100602.03;;;24.69;57.57
18749;BME280;9503;53.560;10.246;2023-07-22T08:11:00;100601.22;;;24.63;56.95
18749;BME280;9503;53.560;10.246;2023-07-22T08:13:28;100598.63;;;23.63;58.93
18749;BME280;9503;53.560;10.246;2023-07-22T08:15:56;100598.22;;;22.72;61.14
18749;BME280;9503;53.560;10.246;2023-07-22T08:18:23;100594.50;;;23.28;59.84
18749;BME280;9503;53.560;10.246;2023-07-22T08:20:51;100605.09;;;24.25;58.76
18749;BME280;9503;53.560;10.246;2023-07-22T08:23:18;100607.69;;;24.33;60.74
18749;BME280;9503;53.560;10.246;2023-07-22T08:25:44;100604.63;;;23.79;62.62
18749;BME280;9503;53.560;10.246;2023-07-22T08:28:11;100604.06;;;23.32;63.54
18749;BME280;9503;53.560;10.246;2023-07-22T08:30:39;100593.72;;;23.05;63.83
18749;BME280;9503;53.560;10.246;2023-07-22T08:33:07;100598.81;;;23.32;63.46
18749;BME280;9503;53.560;10.246;2023-07-22T08:35:34;100596.50;;;22.67;63.59
18749;BME280;9503;53.560;10.246;2023-07-22T08:38:02;100604.31;;;22.77;64.60
18749;BME280;9503;53.560;10.246;2023-07-22T08:40:33;100608.75;;;22.49;64.58
18749;BME280;9503;53.560;10.246;2023-07-22T08:43:00;100618.84;;;23.39;62.66
18749;BME280;9503;53.560;10.246;2023-07-22T08:45:30;100605.72;;;23.44;61.95
18749;BME280;9503;53.560;10.246;2023-07-22T08:47:59;100610.81;;;23.70;60.71
18749;BME280;9503;53.560;10.246;2023-07-22T08:50:30;100602.28;;;23.37;59.27
18749;BME280;9503;53.560;10.246;2023-07-22T08:53:01;100609.16;;;23.49;58.90
18749;BME280;9503;53.560;10.246;2023-07-22T08:55:28;100607.06;;;22.21;61.61
18749;BME280;9503;53.560;10.246;2023-07-22T08:57:55;100603.28;;;23.15;59.94
18749;BME280;9503;53.560;10.246;2023-07-22T09:00:22;100609.34;;;23.19;59.36
18749;BME280;9503;53.560;10.246;2023-07-22T09:02:50;100613.53;;;23.53;59.19
18749;BME280;9503;53.560;10.246;2023-07-22T09:05:20;100608.72;;;22.51;59.18
18749;BME280;9503;53.560;10.246;2023-07-22T09:07:47;100616.81;;;23.83;57.66
18749;BME280;9503;53.560;10.246;2023-07-22T09:10:15;100614.47;;;23.40;58.60
18749;BME280;9503;53.560;10.246;2023-07-22T09:12:42;100608.31;;;23.52;57.33
18749;BME280;9503;53.560;10.246;2023-07-22T09:15:09;100613.97;;;24.12;55.86
18749;BME280;9503;53.560;10.246;2023-07-22T09:17:37;100609.22;;;24.53;54.51
18749;BME280;9503;53.560;10.246;2023-07-22T09:20:05;100611.28;;;24.98;53.35
18749;BME280;9503;53.560;10.246;2023-07-22T09:22:34;100614.44;;;25.24;52.47
18749;BME280;9503;53.560;10.246;2023-07-22T09:25:14;100617.44;;;26.15;51.38
18749;BME280;9503;53.560;10.246;2023-07-22T09:27:41;100617.47;;;26.12;52.07
18749;BME280;9503;53.560;10.246;2023-07-22T09:30:20;100617.25;;;25.14;51.40
18749;BME280;9503;53.560;10.246;2023-07-22T09:32:48;100619.34;;;25.50;51.28
18749;BME280;9503;53.560;10.246;2023-07-22T09:35:15;100614.91;;;24.88;52.45
18749;BME280;9503;53.560;10.246;2023-07-22T09:37:43;100607.22;;;25.40;52.24
18749;BME280;9503;53.560;10.246;2023-07-22T09:40:14;100613.09;;;26.13;51.38
18749;BME280;9503;53.560;10.246;2023-07-22T09:42:44;100605.53;;;25.95;50.70
18749;BME280;9503;53.560;10.246;2023-07-22T09:45:11;100620.28;;;26.03;50.11
18749;BME280;9503;53.560;10.246;2023-07-22T09:47:41;100599.66;;;25.20;51.78
18749;BME280;9503;53.560;10.246;2023-07-22T09:50:10;100609.63;;;24.91;52.10
18749;BME280;9503;53.560;10.246;2023-07-22T09:52:43;100604.78;;;25.26;51.98
18749;BME280;9503;53.560;10.246;2023-07-22T09:55:10;100604.97;;;25.16;52.25
18749;BME280;9503;53.560;10.246;2023-07-22T09:57:39;100609.97;;;25.34;52.10
18749;BME280;9503;53.560;10.246;2023-07-22T10:00:08;100608.84;;;25.50;52.22
18749;BME280;9503;53.560;10.246;2023-07-22T10:02:36;100604.97;;;25.14;52.39
18749;BME280;9503;53.560;10.246;2023-07-22T10:05:04;100601.09;;;25.43;51.82
18749;BME280;9503;53.560;10.246;2023-07-22T10:07:33;100607.22;;;24.72;52.61
18749;BME280;9503;53.560;10.246;2023-07-22T10:10:01;100598.75;;;24.49;52.82
18749;BME280;9503;53.560;10.246;2023-07-22T10:12:28;100597.84;;;24.51;53.88
18749;BME280;9503;53.560;10.246;2023-07-22T10:14:55;100603.69;;;25.41;53.23
18749;BME280;9503;53.560;10.246;2023-07-22T10:17:23;100595.72;;;26.54;51.55
18749;BME280;9503;53.560;10.246;2023-07-22T10:19:51;100598.09;;;27.48;48.30
18749;BME280;9503;53.560;10.246;2023-07-22T10:22:18;100598.59;;;26.38;48.14
18749;BME280;9503;53.560;10.246;2023-07-22T10:24:47;100592.50;;;27.23;47.91
18749;BME280;9503;53.560;10.246;2023-07-22T10:27:16;100611.25;;;25.64;50.66
18749;BME280;9503;53.560;10.246;2023-07-22T10:29:45;100601.19;;;25.92;51.17
18749;BME280;9503;53.560;10.246;2023-07-22T10:32:12;100593.81;;;27.04;49.44
18749;BME280;9503;53.560;10.246;2023-07-22T10:34:38;100594.41;;;27.91;45.50
18749;BME280;9503;53.560;10.246;2023-07-22T10:37:09;100598.66;;;26.37;48.22
18749;BME280;9503;53.560;10.246;2023-07-22T10:39:35;100591.59;;;25.32;50.39
18749;BME280;9503;53.560;10.246;2023-07-22T10:42:03;100594.81;;;25.51;50.40
18749;BME280;9503;53.560;10.246;2023-07-22T10:44:32;100591.16;;;25.60;49.86
18749;BME280;9503;53.560;10.246;2023-07-22T10:46:59;100590.19;;;26.20;49.09
18749;BME280;9503;53.560;10.246;2023-07-22T10:49:29;100597.97;;;25.75;49.41
18749;BME280;9503;53.560;10.246;2023-07-22T10:52:10;100584.13;;;25.02;48.78
18749;BME280;9503;53.560;10.246;2023-07-22T10:54:37;100591.16;;;25.00;50.09
18749;BME280;9503;53.560;10.246;2023-07-22T10:57:22;100593.19;;;25.44;49.44
18749;BME280;9503;53.560;10.246;2023-07-22T10:59:51;100584.69;;;26.33;48.21
18749;BME280;9503;53.560;10.246;2023-07-22T11:02:23;100585.31;;;26.48;46.95
18749;BME280;9503;53.560;10.246;2023-07-22T11:04:50;100583.28;;;26.62;46.72
18749;BME280;9503;53.560;10.246;2023-07-22T11:07:30;100592.25;;;25.47;49.27
18749;BME280;9503;53.560;10.246;2023-07-22T11:09:57;100589.97;;;26.32;48.42
18749;BME280;9503;53.560;10.246;2023-07-22T11:12:25;100595.91;;;27.28;46.61
18749;BME280;9503;53.560;10.246;2023-07-22T11:15:02;100593.41;;;26.82;46.96
18749;BME280;9503;53.560;10.246;2023-07-22T11:17:31;100595.16;;;26.80;47.49
18749;BME280;9503;53.560;10.246;2023-07-22T11:20:00;100600.25;;;27.31;45.79
18749;BME280;9503;53.560;10.246;2023-07-22T11:22:27;100593.38;;;26.83;46.42
18749;BME280;9503;53.560;10.246;2023-07-22T11:24:55;100591.13;;;26.17;46.62
18749;BME280;9503;53.560;10.246;2023-07-22T11:27:23;100579.53;;;26.72;46.53
18749;BME280;9503;53.560;10.246;2023-07-22T11:29:50;100580.16;;;27.99;45.41
18749;BME280;9503;53.560;10.246;2023-07-22T11:32:20;100596.72;;;27.70;45.32
18749;BME280;9503;53.560;10.246;2023-07-22T11:34:47;100585.47;;;25.89;48.77
18749;BME280;9503;53.560;10.246;2023-07-22T11:37:14;100582.66;;;26.49;47.40
18749;BME280;9503;53.560;10.246;2023-07-22T11:39:42;100578.94;;;27.01;46.54
18749;BME280;9503;53.560;10.246;2023-07-22T11:42:09;100576.84;;;27.56;46.25
18749;BME280;9503;53.560;10.246;2023-07-22T11:44:37;100575.78;;;26.85;47.47
18749;BME280;9503;53.560;10.246;2023-07-22T11:47:05;100566.97;;;26.86;48.21
18749;BME280;9503;53.560;10.246;2023-07-22T11:49:36;100568.59;;;27.32;47.04
18749;BME280;9503;53.560;10.246;2023-07-22T11:52:04;100569.84;;;27.16;47.83
18749;BME280;9503;53.560;10.246;2023-07-22T11:54:33;100568.50;;;27.37;47.41
18749;BME280;9503;53.560;10.246;2023-07-22T11:57:10;100562.22;;;27.02;48.09
18749;BME280;9503;53.560;10.246;2023-07-22T11:59:38;100571.41;;;27.97;47.04
18749;BME280;9503;53.560;10.246;2023-07-22T12:02:05;100573.41;;;27.15;47.01
18749;BME280;9503;53.560;10.246;2023-07-22T12:04:33;100572.03;;;26.95;47.28
18749;BME280;9503;53.560;10.246;2023-07-22T12:07:00;100569.03;;;26.72;48.54
18749;BME280;9503;53.560;10.246;2023-07-22T12:09:29;100572.09;;;26.51;47.99
18749;BME280;9503;53.560;10.246;2023-07-22T12:11:57;100565.66;;;27.07;47.39
18749;BME280;9503;53.560;10.246;2023-07-22T12:14:25;100565.88;;;26.55;48.47
18749;BME280;9503;53.560;10.246;2023-07-22T12:16:58;100552.16;;;26.82;48.00
18749;BME280;9503;53.560;10.246;2023-07-22T12:19:27;100554.19;;;26.69;47.88
18749;BME280;9503;53.560;10.246;2023-07-22T12:21:55;100549.28;;;26.53;48.45
18749;BME280;9503;53.560;10.246;2023-07-22T12:24:22;100554.38;;;27.00;47.78
18749;BME280;9503;53.560;10.246;2023-07-22T12:26:48;100555.78;;;27.54;47.03
18749;BME280;9503;53.560;10.246;2023-07-22T12:29:15;100543.25;;;27.28;46.72
18749;BME280;9503;53.560;10.246;2023-07-22T12:31:41;100547.53;;;28.03;45.72
18749;BME280;9503;53.560;10.246;2023-07-22T12:34:08;100549.53;;;26.82;48.04
18749;BME280;9503;53.560;10.246;2023-07-22T12:36:35;100549.69;;;27.15;47.52
18749;BME280;9503;53.560;10.246;2023-07-22T12:39:03;100540.53;;;26.04;48.99
18749;BME280;9503;53.560;10.246;2023-07-22T12:41:30;100549.97;;;27.01;47.99
18749;BME280;9503;53.560;10.246;2023-07-22T12:43:56;100541.88;;;27.49;47.43
18749;BME280;9503;53.560;10.246;2023-07-22T12:46:23;100543.81;;;28.11;45.83
18749;BME280;9503;53.560;10.246;2023-07-22T12:48:50;100546.28;;;27.47;47.33
18749;BME280;9503;53.560;10.246;2023-07-22T12:51:16;100539.06;;;26.79;48.39
18749;BME280;9503;53.560;10.246;2023-07-22T12:53:43;100540.44;;;25.58;49.95